createdAt,value
2022-08-22T00:00:59.072Z,1.77
2022-08-22T00:02:57.071Z,0.85
2022-08-22T00:03:09.333Z,0.70
2022-08-22T00:03:39.909Z,2.20
2022-08-22T00:06:13.367Z,1.90
2022-08-22T00:09:03.620Z,1.83
2022-08-22T00:11:52.127Z,1.50
2022-08-22T00:14:20.024Z,1.63
2022-08-22T00:17:13.318Z,2.50
2022-08-22T00:19:55.515Z,1.73
2022-08-22T00:22:48.350Z,1.55
2022-08-22T00:25:49.177Z,1.42
2022-08-22T00:28:21.274Z,1.48
2022-08-22T00:30:59.256Z,1.57
2022-08-22T00:33:32.916Z,1.45
2022-08-22T00:36:09.572Z,1.55
2022-08-22T00:38:42.424Z,1.65
2022-08-22T00:41:27.424Z,1.20
2022-08-22T00:44:11.193Z,1.30
2022-08-22T00:46:52.847Z,1.27
2022-08-22T00:49:44.107Z,1.45
2022-08-22T00:52:17.920Z,1.50
2022-08-22T00:55:03.067Z,1.15
2022-08-22T00:58:04.427Z,1.40
2022-08-22T01:00:40.727Z,1.33
2022-08-22T01:03:34.904Z,1.08
2022-08-22T01:06:01.252Z,1.40
2022-08-22T01:08:37.755Z,0.90
2022-08-22T01:11:26.643Z,1.07
2022-08-22T01:14:02.388Z,1.50
2022-08-22T01:16:30.171Z,1.30
2022-08-22T01:19:06.052Z,1.23
2022-08-22T01:22:14.619Z,1.48
2022-08-22T01:25:11.677Z,1.23
2022-08-22T01:28:05.278Z,1.30
2022-08-22T01:30:52.941Z,1.27
2022-08-22T01:33:49.327Z,2.00
2022-08-22T01:36:29.388Z,1.10
2022-08-22T01:39:22.037Z,1.50
2022-08-22T01:42:26.207Z,1.42
2022-08-22T01:45:12.208Z,1.45
2022-08-22T01:47:50.004Z,1.65
2022-08-22T01:50:37.553Z,1.40
2022-08-22T01:53:08.207Z,1.60
2022-08-22T01:55:58.413Z,1.40
2022-08-22T01:58:28.389Z,1.20
2022-08-22T02:01:08.492Z,1.30
2022-08-22T02:04:10.201Z,1.38
2022-08-22T02:06:51.572Z,1.17
2022-08-22T02:09:39.340Z,1.30
2022-08-22T02:12:26.429Z,1.23
2022-08-22T02:15:05.362Z,1.23
2022-08-22T02:17:35.596Z,1.38
2022-08-22T02:20:10.442Z,1.13
2022-08-22T02:22:51.974Z,1.40
2022-08-22T02:25:32.344Z,1.20
2022-08-22T02:28:08.487Z,1.52
2022-08-22T02:30:52.478Z,1.50
2022-08-22T02:33:32.564Z,1.20
2022-08-22T02:36:07.504Z,1.30
2022-08-22T02:38:42.592Z,1.15
2022-08-22T02:41:21.069Z,1.30
2022-08-22T02:43:56.404Z,1.20
2022-08-22T02:46:23.038Z,1.67
2022-08-22T02:49:32.185Z,1.40
2022-08-22T02:52:12.586Z,1.10
2022-08-22T02:54:56.756Z,1.30
2022-08-22T02:57:39.611Z,1.48
2022-08-22T03:00:30.749Z,1.07
2022-08-22T03:03:05.735Z,1.50
2022-08-22T03:05:36.106Z,1.30
2022-08-22T03:08:08.084Z,1.30
2022-08-22T03:10:43.575Z,1.60
2022-08-22T03:13:24.224Z,1.20
2022-08-22T03:15:56.405Z,1.10
2022-08-22T03:18:44.744Z,1.20
2022-08-22T03:21:32.580Z,1.10
2022-08-22T03:24:08.391Z,1.23
2022-08-22T03:26:49.262Z,1.33
2022-08-22T03:29:20.848Z,1.05
2022-08-22T03:32:09.736Z,1.50
2022-08-22T03:34:36.778Z,1.27
2022-08-22T03:37:17.330Z,0.90
2022-08-22T03:39:50.843Z,1.17
2022-08-22T03:42:48.572Z,1.13
2022-08-22T03:45:36.826Z,1.58
2022-08-22T03:48:31.079Z,1.17
2022-08-22T03:51:03.729Z,1.92
2022-08-22T03:53:58.401Z,1.37
2022-08-22T03:56:50.588Z,1.23
2022-08-22T03:59:56.296Z,1.40
2022-08-22T04:03:06.897Z,1.83
2022-08-22T04:05:52.813Z,1.20
2022-08-22T04:08:33.094Z,1.33
2022-08-22T04:11:30.645Z,1.48
2022-08-22T04:14:12.445Z,1.65
2022-08-22T04:17:07.102Z,1.50
2022-08-22T04:19:58.071Z,1.73
2022-08-22T04:22:50.924Z,1.97
2022-08-22T04:25:23.749Z,1.77
2022-08-22T04:28:14.862Z,1.55
2022-08-22T04:30:50.244Z,1.50
2022-08-22T04:33:24.540Z,1.70
2022-08-22T04:36:05.164Z,1.43
2022-08-22T04:38:41.025Z,1.70
2022-08-22T04:41:12.176Z,1.70
2022-08-22T04:43:58.887Z,1.67
2022-08-22T04:46:37.306Z,1.45
2022-08-22T04:49:29.216Z,1.70
2022-08-22T04:52:09.166Z,1.63
2022-08-22T04:54:56.352Z,1.80
2022-08-22T04:57:36.899Z,1.90
2022-08-22T05:00:07.584Z,2.10
2022-08-22T05:02:37.659Z,2.00
2022-08-22T05:05:13.619Z,1.80
2022-08-22T05:07:47.230Z,2.05
2022-08-22T05:10:19.489Z,1.90
2022-08-22T05:12:59.983Z,2.47
2022-08-22T05:15:33.552Z,2.00
2022-08-22T05:18:07.333Z,1.75
2022-08-22T05:20:35.279Z,2.08
2022-08-22T05:23:17.671Z,2.03
2022-08-22T05:25:46.873Z,1.95
2022-08-22T05:28:34.382Z,1.97
2022-08-22T05:31:13.930Z,1.92
2022-08-22T05:33:50.493Z,2.05
2022-08-22T05:36:24.137Z,2.20
2022-08-22T05:38:59.081Z,2.00
2022-08-22T05:41:28.885Z,2.30
2022-08-22T05:43:55.928Z,2.50
2022-08-22T05:46:27.131Z,2.17
2022-08-22T05:48:59.849Z,2.10
2022-08-22T05:51:39.543Z,2.13
2022-08-22T05:54:21.536Z,2.10
2022-08-22T05:57:11.287Z,2.15
2022-08-22T05:59:42.594Z,2.35
2022-08-22T06:02:16.596Z,2.42
2022-08-22T06:04:44.019Z,2.10
2022-08-22T06:07:20.502Z,2.37
2022-08-22T06:09:46.991Z,2.53
2022-08-22T06:12:22.278Z,2.30
2022-08-22T06:15:20.918Z,2.40
2022-08-22T06:17:51.033Z,2.28
2022-08-22T06:20:25.230Z,2.30
2022-08-22T06:22:57.724Z,2.35
2022-08-22T06:25:30.037Z,2.65
2022-08-22T06:28:01.003Z,2.53
2022-08-22T06:30:29.767Z,2.65
2022-08-22T06:33:06.321Z,2.70
2022-08-22T06:35:59.097Z,2.60
2022-08-22T06:38:32.383Z,2.72
2022-08-22T06:41:02.965Z,2.67
2022-08-22T06:43:42.467Z,3.20
2022-08-22T06:46:13.103Z,2.93
2022-08-22T06:48:41.272Z,3.17
2022-08-22T06:51:08.788Z,3.30
2022-08-22T06:53:45.960Z,2.85
2022-08-22T06:56:38.945Z,2.50
2022-08-22T06:59:12.189Z,2.87
2022-08-22T07:01:48.108Z,2.40
2022-08-22T07:04:18.584Z,2.78
2022-08-22T07:06:50.120Z,3.03
2022-08-22T07:09:28.123Z,2.95
2022-08-22T07:11:57.630Z,3.33
2022-08-22T07:14:28.502Z,2.25
2022-08-22T07:17:02.455Z,3.50
2022-08-22T07:19:35.881Z,3.33
2022-08-22T07:22:16.068Z,3.30
2022-08-22T07:24:50.942Z,3.07
2022-08-22T07:27:28.886Z,2.90
2022-08-22T07:30:03.987Z,2.35
2022-08-22T07:32:50.343Z,3.58
2022-08-22T07:35:23.373Z,2.47
2022-08-22T07:38:04.535Z,3.63
2022-08-22T07:40:46.516Z,3.55
2022-08-22T07:43:24.959Z,3.20
2022-08-22T07:45:57.542Z,3.33
2022-08-22T07:48:33.136Z,4.25
2022-08-22T07:51:07.881Z,3.63
2022-08-22T07:53:42.592Z,4.05
2022-08-22T07:56:16.604Z,2.97
2022-08-22T07:58:47.852Z,3.30
2022-08-22T08:01:19.809Z,4.47
2022-08-22T08:03:55.079Z,4.30
2022-08-22T08:06:24.302Z,2.95
2022-08-22T08:08:52.962Z,3.45
2022-08-22T08:11:22.686Z,4.25
2022-08-22T08:13:54.760Z,4.03
2022-08-22T08:16:25.188Z,3.83
2022-08-22T08:18:55.175Z,3.05
2022-08-22T08:21:26.328Z,3.60
2022-08-22T08:23:54.035Z,4.20
2022-08-22T08:26:26.946Z,3.78
2022-08-22T08:28:57.198Z,3.10
2022-08-22T08:34:10.141Z,2.97
2022-08-22T08:36:48.197Z,3.10
2022-08-22T08:39:34.929Z,2.90
2022-08-22T08:42:12.089Z,3.20
2022-08-22T08:44:39.545Z,3.90
2022-08-22T08:47:21.075Z,3.40
2022-08-22T08:50:05.831Z,2.67
2022-08-22T08:53:03.643Z,2.80
2022-08-22T08:55:47.637Z,3.03
2022-08-22T08:58:35.882Z,2.97
2022-08-22T09:01:31.017Z,2.72
2022-08-22T09:04:35.809Z,2.92
2022-08-22T09:07:21.332Z,3.10
2022-08-22T09:10:29.385Z,2.60
2022-08-22T09:13:14.944Z,3.22
2022-08-22T09:15:58.564Z,3.50
2022-08-22T09:18:51.072Z,3.33
2022-08-22T09:21:37.618Z,3.30
2022-08-22T09:24:24.449Z,2.57
2022-08-22T09:27:01.252Z,3.20
2022-08-22T09:29:54.515Z,3.40
2022-08-22T09:32:29.520Z,3.10
2022-08-22T09:34:59.546Z,3.83
2022-08-22T09:37:40.220Z,3.90
2022-08-22T09:40:19.594Z,3.20
2022-08-22T09:43:06.223Z,2.55
2022-08-22T09:45:36.159Z,3.10
2022-08-22T09:48:18.809Z,2.60
2022-08-22T09:51:04.636Z,3.67
2022-08-22T09:54:06.493Z,2.55
2022-08-22T09:56:51.233Z,2.35
2022-08-22T09:59:23.416Z,2.72
2022-08-22T10:02:32.389Z,2.70
2022-08-22T10:05:09.029Z,2.30
2022-08-22T10:07:52.770Z,2.83
2022-08-22T10:10:32.608Z,2.17
2022-08-22T10:13:10.517Z,1.88
2022-08-22T10:15:48.476Z,2.20
2022-08-22T10:18:36.837Z,2.70
2022-08-22T10:21:21.935Z,2.60
2022-08-22T10:23:59.197Z,2.25
2022-08-22T10:26:42.977Z,2.25
2022-08-22T10:29:15.551Z,3.28
2022-08-22T10:31:58.901Z,2.30
2022-08-22T10:34:36.218Z,1.90
2022-08-22T10:37:23.905Z,2.05
2022-08-22T10:40:03.005Z,2.47
2022-08-22T10:42:38.853Z,2.40
2022-08-22T10:45:36.930Z,2.00
2022-08-22T10:48:04.525Z,2.50
2022-08-22T10:50:42.929Z,2.00
2022-08-22T10:53:30.697Z,2.20
2022-08-22T10:56:21.817Z,1.95
2022-08-22T10:58:56.102Z,2.23
2022-08-22T11:01:37.823Z,1.90
2022-08-22T11:04:40.859Z,1.50
2022-08-22T11:07:36.366Z,2.33
2022-08-22T11:10:21.258Z,2.42
2022-08-22T11:13:03.475Z,1.80
2022-08-22T11:15:52.933Z,1.95
2022-08-22T11:18:30.458Z,1.88
2022-08-22T11:21:09.388Z,2.15
2022-08-22T11:23:45.683Z,2.30
2022-08-22T11:26:47.314Z,1.90
2022-08-22T11:29:26.386Z,2.00
2022-08-22T11:32:11.481Z,2.08
2022-08-22T11:34:57.157Z,1.55
2022-08-22T11:37:43.233Z,2.05
2022-08-22T11:40:27.339Z,1.80
2022-08-22T11:43:07.743Z,1.50
2022-08-22T11:45:46.747Z,1.98
2022-08-22T11:48:27.641Z,1.63
2022-08-22T11:51:13.123Z,1.60
2022-08-22T11:53:52.176Z,1.43
2022-08-22T11:56:34.395Z,1.90
2022-08-22T11:59:01.939Z,1.83
2022-08-22T12:01:39.600Z,1.60
2022-08-22T12:04:10.432Z,1.80
2022-08-22T12:06:56.818Z,1.70
2022-08-22T12:09:32.068Z,1.48
2022-08-22T12:12:04.934Z,2.00
2022-08-22T12:14:48.331Z,1.92
2022-08-22T12:17:50.823Z,1.70
2022-08-22T12:20:27.154Z,1.60
2022-08-22T12:22:55.525Z,1.95
2022-08-22T12:25:46.785Z,1.35
2022-08-22T12:28:31.287Z,1.65
2022-08-22T12:31:17.738Z,1.90
2022-08-22T12:33:52.414Z,1.40
2022-08-22T12:36:43.258Z,1.85
2022-08-22T12:39:27.344Z,1.70
2022-08-22T12:42:09.672Z,1.60
2022-08-22T12:44:56.297Z,1.88
2022-08-22T12:47:32.280Z,1.93
2022-08-22T12:50:07.546Z,1.50
2022-08-22T12:53:20.311Z,1.83
2022-08-22T12:55:58.041Z,1.65
2022-08-22T12:58:55.540Z,1.60
2022-08-22T13:01:34.138Z,1.57
2022-08-22T13:04:05.422Z,1.80
2022-08-22T13:06:35.821Z,1.50
2022-08-22T13:09:09.867Z,1.65
2022-08-22T13:11:39.902Z,1.65
2022-08-22T13:14:09.741Z,1.70
2022-08-22T13:16:52.858Z,2.10
2022-08-22T13:19:23.901Z,1.50
2022-08-22T13:22:02.342Z,1.50
2022-08-22T13:24:38.564Z,1.40
2022-08-22T13:27:15.089Z,1.43
2022-08-22T13:29:47.046Z,2.03
2022-08-22T13:32:26.368Z,1.42
2022-08-22T13:34:56.963Z,1.48
2022-08-22T13:37:34.550Z,1.77
2022-08-22T13:40:05.998Z,1.50
2022-08-22T13:42:40.062Z,1.38
2022-08-22T13:45:15.546Z,1.08
2022-08-22T13:47:51.758Z,1.23
2022-08-22T13:50:24.203Z,1.40
2022-08-22T13:53:02.303Z,1.10
2022-08-22T13:55:38.277Z,1.67
2022-08-22T13:58:26.848Z,2.20
2022-08-22T14:00:57.814Z,1.58
2022-08-22T14:03:35.037Z,1.65
2022-08-22T14:06:35.321Z,1.70
2022-08-22T14:09:03.429Z,1.52
2022-08-22T14:11:43.718Z,1.30
2022-08-22T14:14:11.018Z,1.23
2022-08-22T14:16:47.663Z,1.33
2022-08-22T14:19:28.373Z,1.60
2022-08-22T14:22:02.723Z,1.60
2022-08-22T14:24:38.878Z,1.90
2022-08-22T14:27:16.988Z,1.50
2022-08-22T14:29:52.451Z,1.67
2022-08-22T14:32:35.561Z,1.80
2022-08-22T14:35:17.037Z,1.38
2022-08-22T14:37:54.338Z,1.50
2022-08-22T14:40:30.050Z,1.35
2022-08-22T14:43:07.393Z,1.73
2022-08-22T14:45:38.997Z,1.80
2022-08-22T14:48:31.655Z,2.13
2022-08-22T14:51:01.045Z,1.30
2022-08-22T14:53:33.662Z,1.45
2022-08-22T14:56:04.018Z,1.58
2022-08-22T14:58:45.427Z,1.60
2022-08-22T15:01:15.841Z,1.35
2022-08-22T15:03:51.182Z,1.45
2022-08-22T15:06:47.587Z,1.40
2022-08-22T15:09:33.977Z,1.58
2022-08-22T15:12:03.802Z,1.40
2022-08-22T15:14:48.953Z,1.33
2022-08-22T15:17:34.747Z,1.45
2022-08-22T15:20:11.742Z,1.40
2022-08-22T15:22:40.910Z,1.33
2022-08-22T15:25:16.571Z,1.83
2022-08-22T15:27:55.780Z,0.93
2022-08-22T15:30:32.978Z,1.60
2022-08-22T15:33:11.397Z,1.85
2022-08-22T15:35:39.530Z,1.30
2022-08-22T15:38:27.620Z,1.40
2022-08-22T15:40:55.831Z,1.35
2022-08-22T15:43:34.884Z,1.48
2022-08-22T15:46:09.964Z,1.42
2022-08-22T15:48:57.612Z,1.50
2022-08-22T15:51:36.852Z,1.40
2022-08-22T15:54:24.220Z,1.88
2022-08-22T15:56:51.906Z,1.02
2022-08-22T15:59:26.365Z,1.58
2022-08-22T16:01:58.845Z,1.20
2022-08-22T16:04:33.963Z,1.30
2022-08-22T16:07:02.596Z,1.40
2022-08-22T16:09:43.534Z,1.42
2022-08-22T16:12:29.547Z,1.30
2022-08-22T16:14:56.997Z,1.60
2022-08-22T16:17:29.540Z,1.37
2022-08-22T16:20:20.029Z,1.25
2022-08-22T16:22:56.501Z,1.40
2022-08-22T16:25:44.963Z,1.67
2022-08-22T16:28:56.404Z,1.50
2022-08-22T16:31:24.810Z,1.50
2022-08-22T16:33:51.403Z,1.52
2022-08-22T16:36:39.649Z,1.45
2022-08-22T16:39:31.362Z,1.40
2022-08-22T16:42:21.695Z,1.20
2022-08-22T16:45:01.820Z,1.30
2022-08-22T16:47:31.208Z,1.13
2022-08-22T16:50:22.409Z,1.30
2022-08-22T16:53:09.128Z,1.15
2022-08-22T16:55:42.903Z,1.15
2022-08-22T16:58:55.865Z,1.40
2022-08-22T17:01:47.837Z,1.45
2022-08-22T17:04:26.949Z,1.08
2022-08-22T17:07:23.577Z,1.20
2022-08-22T17:10:18.885Z,1.40
2022-08-22T17:13:13.042Z,1.37
2022-08-22T17:15:43.594Z,1.48
2022-08-22T17:18:21.300Z,1.27
2022-08-22T17:21:04.511Z,1.00
2022-08-22T17:23:48.730Z,1.42
2022-08-22T17:26:22.365Z,1.70
2022-08-22T17:29:02.348Z,1.58
2022-08-22T17:31:43.152Z,1.75
2022-08-22T17:34:42.580Z,1.60
2022-08-22T17:37:09.278Z,1.70
2022-08-22T17:39:57.098Z,2.10
2022-08-22T17:42:41.033Z,1.60
2022-08-22T17:45:19.531Z,1.90
2022-08-22T17:47:54.900Z,1.70
2022-08-22T17:50:30.994Z,1.50
2022-08-22T17:53:16.458Z,1.90
2022-08-22T17:56:11.248Z,1.42
2022-08-22T17:58:48.887Z,1.63
2022-08-22T18:22:37.982Z,1.98
2022-08-22T18:26:49.554Z,1.70
2022-08-22T18:30:36.699Z,2.00
2022-08-22T18:43:17.901Z,1.70
2022-08-22T18:48:33.975Z,2.25
2022-08-22T18:51:24.638Z,1.95
2022-08-22T18:54:04.559Z,1.88
2022-08-22T18:56:31.025Z,1.77
2022-08-22T18:59:12.816Z,1.70
2022-08-22T19:01:50.842Z,1.67
2022-08-22T19:04:45.767Z,1.90
2022-08-22T19:07:26.161Z,2.05
2022-08-22T19:10:17.994Z,1.30
2022-08-22T19:13:08.039Z,1.80
2022-08-22T19:15:55.597Z,1.60
2022-08-22T19:18:24.086Z,1.90
2022-08-22T19:21:31.656Z,1.80
2022-08-22T19:23:58.412Z,1.87
2022-08-22T19:26:28.218Z,2.03
2022-08-22T19:29:01.742Z,1.75
2022-08-22T19:31:35.269Z,1.90
2022-08-22T19:34:16.180Z,2.53
2022-08-22T19:36:45.609Z,1.60
2022-08-22T19:39:41.056Z,1.85
2022-08-22T19:42:19.932Z,2.00
2022-08-22T19:45:00.803Z,1.60
2022-08-22T19:47:34.713Z,2.20
2022-08-22T19:50:13.870Z,1.73
2022-08-22T19:52:56.672Z,1.95
2022-08-22T19:55:51.409Z,1.75
2022-08-22T19:58:32.530Z,1.80
2022-08-22T20:01:24.297Z,1.80
2022-08-22T20:04:09.145Z,2.30
2022-08-22T20:06:51.933Z,2.05
2022-08-22T20:09:26.501Z,2.47
2022-08-22T20:12:13.347Z,2.00
2022-08-22T20:14:44.738Z,2.05
2022-08-22T20:17:24.270Z,1.90
2022-08-22T20:22:52.951Z,2.30
2022-08-22T20:25:41.584Z,2.08
2022-08-22T20:28:27.392Z,2.35
2022-08-22T20:30:59.274Z,2.07
2022-08-22T20:33:33.489Z,1.88
2022-08-22T20:36:06.124Z,2.20
2022-08-22T20:38:55.440Z,2.00
2022-08-22T20:41:30.487Z,2.25
2022-08-22T20:44:06.534Z,2.03
2022-08-22T20:46:53.623Z,2.30
2022-08-22T20:49:26.836Z,2.30
2022-08-22T20:51:57.907Z,2.60
2022-08-22T20:54:27.393Z,2.50
2022-08-22T20:56:57.576Z,2.30
2022-08-22T20:59:36.166Z,2.38
2022-08-22T21:02:10.487Z,2.38
2022-08-22T21:04:44.361Z,1.98
2022-08-22T21:07:11.049Z,2.28
2022-08-22T21:09:55.999Z,2.70
2022-08-22T21:12:24.037Z,2.25
2022-08-22T21:14:50.583Z,2.17
2022-08-22T21:17:22.992Z,2.30
2022-08-22T21:19:49.620Z,2.60
2022-08-22T21:22:24.726Z,2.40
2022-08-22T21:24:55.420Z,2.30
2022-08-22T21:27:27.590Z,2.72
2022-08-22T21:29:55.367Z,2.45
2022-08-22T21:32:34.318Z,2.40
2022-08-22T21:35:02.074Z,2.87
2022-08-22T21:37:44.856Z,2.78
2022-08-22T21:40:15.355Z,2.83
2022-08-22T21:42:45.204Z,2.78
2022-08-22T21:45:27.892Z,2.80
2022-08-22T21:47:54.998Z,3.00
2022-08-22T21:50:23.230Z,2.90
2022-08-22T21:52:53.833Z,2.88
2022-08-22T21:55:27.486Z,2.95
2022-08-22T21:58:04.696Z,2.50
2022-08-22T22:00:48.583Z,2.57
2022-08-22T22:03:18.080Z,2.95
2022-08-22T22:05:44.715Z,2.85
2022-08-22T22:08:12.131Z,3.10
2022-08-22T22:10:41.711Z,2.50
2022-08-22T22:13:08.948Z,3.00
2022-08-22T22:15:44.016Z,2.85
2022-08-22T22:18:13.699Z,2.45
2022-08-22T22:20:41.167Z,2.88
2022-08-22T22:23:09.298Z,2.78
2022-08-22T22:25:42.236Z,2.43
2022-08-22T22:28:17.068Z,3.08
2022-08-22T22:30:45.183Z,2.70
2022-08-22T22:33:11.968Z,2.58
2022-08-22T22:35:40.150Z,2.95
2022-08-22T22:38:07.658Z,3.40
2022-08-22T22:40:35.105Z,2.72
2022-08-22T22:43:02.059Z,3.10
2022-08-22T22:45:28.505Z,2.97
2022-08-22T22:47:55.058Z,3.70
2022-08-22T22:50:21.654Z,3.47
2022-08-22T22:52:48.131Z,3.28
2022-08-22T22:55:24.252Z,3.17
2022-08-22T22:57:58.439Z,3.55
2022-08-22T23:00:25.782Z,3.28
2022-08-22T23:02:57.160Z,3.17
2022-08-22T23:05:23.632Z,3.47
2022-08-22T23:07:50.247Z,3.38
2022-08-22T23:10:21.373Z,3.15
2022-08-22T23:12:48.420Z,3.00
2022-08-22T23:15:14.874Z,2.70
2022-08-22T23:17:42.234Z,3.00
2022-08-22T23:20:09.031Z,3.40
2022-08-22T23:22:35.500Z,3.13
2022-08-22T23:25:02.258Z,3.30
2022-08-22T23:27:28.772Z,3.57
2022-08-22T23:29:55.233Z,3.38
2022-08-22T23:32:21.641Z,3.28
2022-08-22T23:34:49.920Z,3.47
2022-08-22T23:37:20.139Z,3.63
2022-08-22T23:39:47.087Z,3.63
2022-08-22T23:42:16.532Z,3.90
2022-08-22T23:44:45.157Z,3.40
2022-08-22T23:47:13.258Z,3.70
2022-08-22T23:49:40.695Z,3.40
2022-08-22T23:52:09.279Z,3.30
2022-08-22T23:54:36.015Z,3.78
2022-08-22T23:57:12.141Z,3.20
2022-08-22T23:59:46.217Z,2.97
